Time;durP1;ratioP1;P1;durP2;ratioP2;P2;SDS_P1;SDS_P2;PMS_P1;PMS_P2;Temp;Humidity;BMP_temperature;BMP_pressure;BME280_temperature;BME280_humidity;BME280_pressure;Samples;Min_cycle;Max_cycle;Signal;HPM_P1;HPM_P2
2020/12/05 00:00:52;;;;;;;284.00;131.85;;;;;;;-1.59;68.97;94413.45;1786467;80;21048;-55
2020/12/05 00:03:20;;;;;;;223.47;103.35;;;;;;;-1.51;69.07;94421.79;1786389;80;21072;-54
2020/12/05 00:05:49;;;;;;;259.32;125.53;;;;;;;-1.38;68.83;94425.11;1786463;80;21366;-55
2020/12/05 00:08:18;;;;;;;233.80;115.77;;;;;;;-1.35;68.41;94423.59;1786415;80;21496;-54
2020/12/05 00:10:47;;;;;;;248.50;115.75;;;;;;;-1.37;68.56;94433.96;1786367;80;21128;-54
2020/12/05 00:13:16;;;;;;;211.57;103.02;;;;;;;-1.30;68.43;94432.06;1786381;79;21123;-54
2020/12/05 00:15:44;;;;;;;236.50;114.45;;;;;;;-1.19;68.60;94428.06;1786496;80;21547;-54
2020/12/05 00:18:12;;;;;;;242.82;118.72;;;;;;;-1.21;68.19;94437.91;1786467;80;22197;-55
2020/12/05 00:20:42;;;;;;;223.85;112.75;;;;;;;-1.35;68.13;94436.49;1786294;79;21190;-54
2020/12/05 00:23:12;;;;;;;236.68;116.10;;;;;;;-1.46;68.49;94441.64;1786369;80;21043;-55
2020/12/05 00:25:41;;;;;;;222.70;108.63;;;;;;;-1.47;68.61;94441.45;1786339;80;21492;-54
2020/12/05 00:28:09;;;;;;;226.02;114.08;;;;;;;-1.51;68.65;94440.08;1786443;80;21051;-54
2020/12/05 00:30:38;;;;;;;237.85;111.03;;;;;;;-1.54;68.79;94441.42;1786391;80;21378;-54
2020/12/05 00:33:07;;;;;;;207.55;103.80;;;;;;;-1.54;68.84;94449.52;1786289;80;21138;-55
2020/12/05 00:35:35;;;;;;;227.53;111.03;;;;;;;-1.44;68.89;94451.48;1786370;80;21107;-55
2020/12/05 00:38:03;;;;;;;216.15;104.07;;;;;;;-1.47;68.58;94445.49;1786426;80;21548;-54
2020/12/05 00:40:32;;;;;;;221.07;107.95;;;;;;;-1.46;69.02;94449.73;1786392;80;21084;-54
2020/12/05 00:43:01;;;;;;;212.82;101.40;;;;;;;-1.37;69.08;94442.05;1786334;80;23439;-55
2020/12/05 00:45:29;;;;;;;214.65;100.72;;;;;;;-1.25;68.73;94444.43;1786344;80;21527;-55
2020/12/05 00:47:58;;;;;;;214.15;103.10;;;;;;;-1.23;68.26;94444.25;1781577;79;21487;-55
2020/12/05 00:50:27;;;;;;;206.70;102.05;;;;;;;-1.29;68.29;94450.39;1780966;80;21072;-55
2020/12/05 00:52:56;;;;;;;222.05;103.32;;;;;;;-1.26;68.22;94456.38;1781004;80;21103;-54
2020/12/05 00:55:25;;;;;;;249.32;116.65;;;;;;;-1.26;68.10;94468.52;1781071;80;22077;-55
2020/12/05 00:57:53;;;;;;;233.47;108.92;;;;;;;-1.27;67.89;94461.02;1780899;80;21599;-55
2020/12/05 01:00:22;;;;;;;215.32;99.42;;;;;;;-1.31;68.26;94454.05;1780977;80;21097;-54
2020/12/05 01:02:50;;;;;;;211.90;102.05;;;;;;;-1.21;68.17;94447.91;1781030;80;22000;-54
2020/12/05 01:05:18;;;;;;;234.85;112.60;;;;;;;-1.13;67.60;94452.95;1780932;80;21478;-54
2020/12/05 01:07:47;;;;;;;242.40;114.70;;;;;;;-1.24;67.46;94454.86;1780973;80;21551;-54
2020/12/05 01:10:15;;;;;;;241.42;114.88;;;;;;;-1.40;67.79;94453.61;1780994;80;21540;-54
2020/12/05 01:12:45;;;;;;;259.62;118.30;;;;;;;-1.42;67.77;94459.95;1751116;80;21139;-55
2020/12/05 01:15:13;;;;;;;244.15;106.87;;;;;;;-1.49;67.94;94461.28;1780976;80;21626;-55
2020/12/05 01:17:41;;;;;;;256.57;116.12;;;;;;;-1.43;68.26;94462.45;1780990;80;21497;-54
2020/12/05 01:20:10;;;;;;;241.45;109.60;;;;;;;-1.39;67.66;94451.11;1781088;80;22152;-54
2020/12/05 01:22:38;;;;;;;217.07;103.10;;;;;;;-1.53;67.96;94449.71;1780938;80;21531;-55
2020/12/05 01:25:08;;;;;;;216.93;100.67;;;;;;;-1.49;68.33;94443.75;1780888;80;21131;-54
2020/12/05 01:27:38;;;;;;;226.90;105.52;;;;;;;-1.38;68.01;94443.20;1781071;80;21056;-54
2020/12/05 01:30:07;;;;;;;226.00;108.85;;;;;;;-1.33;67.95;94437.47;1780975;80;21583;-53
2020/12/05 01:32:35;;;;;;;235.13;108.92;;;;;;;-1.35;67.78;94446.52;1780938;80;21533;-54
2020/12/05 01:35:05;;;;;;;224.75;105.17;;;;;;;-1.38;68.02;94441.86;1780880;80;21115;-54
2020/12/05 01:37:33;;;;;;;222.70;102.22;;;;;;;-1.36;67.94;94438.23;1780882;80;21179;-54
2020/12/05 01:40:02;;;;;;;210.72;97.20;;;;;;;-1.43;67.85;94441.67;1781032;80;21071;-54
2020/12/05 01:42:30;;;;;;;207.22;97.75;;;;;;;-1.38;68.02;94451.30;1780936;80;21725;-55
2020/12/05 01:45:00;;;;;;;196.63;95.75;;;;;;;-1.31;67.85;94446.71;1780934;80;21195;-54
2020/12/05 01:47:28;;;;;;;201.20;96.30;;;;;;;-1.25;67.71;94443.08;1783656;80;21513;-54
2020/12/05 01:49:58;;;;;;;219.37;101.10;;;;;;;-1.22;67.47;94435.57;1786564;80;21068;-54
2020/12/05 01:52:26;;;;;;;218.70;104.12;;;;;;;-1.14;67.70;94437.16;1786480;80;21582;-55
2020/12/05 01:54:55;;;;;;;208.72;100.15;;;;;;;-1.07;67.70;94437.17;1786502;80;21111;-54
2020/12/05 01:57:25;;;;;;;213.77;99.30;;;;;;;-0.98;67.74;94436.25;1786505;80;22076;-54
2020/12/05 01:59:53;;;;;;;229.95;106.83;;;;;;;-1.02;67.15;94444.33;1786402;79;21194;-53
2020/12/05 02:02:21;;;;;;;214.20;107.78;;;;;;;-1.21;67.14;94433.06;1786474;80;21051;-54
2020/12/05 02:05:04;;;;;;;212.53;102.58;;;;;;;-1.33;67.38;94447.67;1786403;80;21067;-54
2020/12/05 02:07:49;;;;;;;221.28;110.72;;;;;;;-1.39;67.62;94449.75;1733693;80;21134;-54
2020/12/05 02:10:29;;;;;;;219.43;102.78;;;;;;;-1.46;67.89;94455.13;1786503;79;21379;-54
2020/12/05 02:13:06;;;;;;;;;;;;;;;-1.42;67.97;94462.09;1761558;80;21087;-54
2020/12/05 02:15:35;;;;;;;216.97;97.65;;;;;;;-1.35;67.34;94454.02;1784335;80;20218;-54
2020/12/05 02:18:06;;;;;;;191.55;91.90;;;;;;;-1.44;67.49;94444.73;1786538;80;21610;-54
2020/12/05 02:20:37;;;;;;;186.50;87.80;;;;;;;-1.44;67.62;94450.91;1786479;80;21119;-54
2020/12/05 02:23:13;;;;;;;209.40;97.25;;;;;;;-1.45;67.80;94452.63;1786468;80;21370;-54
2020/12/05 02:25:45;;;;;;;187.47;87.90;;;;;;;-1.45;67.91;94448.58;1786304;80;21162;-54
2020/12/05 02:28:13;;;;;;;173.62;87.47;;;;;;;-1.46;67.99;94445.13;1786433;80;21142;-54
2020/12/05 02:30:42;;;;;;;203.90;96.28;;;;;;;-1.45;67.89;94451.28;1786433;80;21080;-55
2020/12/05 02:33:11;;;;;;;192.95;94.13;;;;;;;-1.56;67.90;94446.39;1786476;80;21056;-54
2020/12/05 02:35:40;;;;;;;194.30;96.05;;;;;;;-1.59;68.30;94448.50;1786468;79;22209;-55
2020/12/05 02:38:25;;;;;;;198.65;92.17;;;;;;;-1.52;68.52;94445.86;1786378;80;21071;-53
2020/12/05 02:40:54;;;;;;;266.70;120.40;;;;;;;-1.37;68.20;94458.24;1786547;79;21559;-54
2020/12/05 02:43:23;;;;;;;269.00;118.62;;;;;;;-1.42;67.55;94447.82;1786521;80;21067;-54
2020/12/05 02:45:52;;;;;;;265.73;120.82;;;;;;;-1.59;67.37;94450.64;1786447;79;21084;-54
2020/12/05 02:48:20;;;;;;;224.75;107.07;;;;;;;-1.77;67.67;94458.41;1782137;79;21421;-55
2020/12/05 02:50:48;;;;;;;309.30;131.12;;;;;;;-1.93;67.74;94450.43;1780955;80;21484;-54
2020/12/05 02:53:17;;;;;;;316.45;144.82;;;;;;;-2.03;68.33;94462.68;1781002;80;21496;-54
2020/12/05 02:55:45;;;;;;;240.15;115.32;;;;;;;-1.91;68.59;94462.95;1780915;80;21575;-54
2020/12/05 02:58:14;;;;;;;183.07;93.33;;;;;;;-1.75;68.16;94453.41;1780916;80;21567;-54
2020/12/05 03:00:42;;;;;;;157.35;81.65;;;;;;;-1.66;68.00;94447.13;1780965;80;22270;-55
2020/12/05 03:03:11;;;;;;;137.47;69.45;;;;;;;-1.55;68.14;94448.73;1780876;80;22550;-54
2020/12/05 03:05:39;;;;;;;155.10;81.17;;;;;;;-1.44;68.00;94447.43;1780857;80;21083;-54
2020/12/05 03:08:09;;;;;;;197.87;91.47;;;;;;;-1.52;67.53;94448.56;1780961;80;21060;-54
2020/12/05 03:10:38;;;;;;;257.65;108.65;;;;;;;-1.79;67.67;94466.11;1780920;80;21059;-54
2020/12/05 03:13:06;;;;;;;230.83;97.57;;;;;;;-1.90;68.26;94459.89;1780834;80;23479;-55
2020/12/05 03:15:35;;;;;;;198.82;88.03;;;;;;;-1.82;68.38;94461.47;1780815;80;21556;-54
2020/12/05 03:18:03;;;;;;;196.32;90.42;;;;;;;-1.69;68.32;94462.72;1780892;80;21158;-54
2020/12/05 03:20:32;;;;;;;177.78;85.28;;;;;;;-1.58;67.94;94462.97;1780884;80;21092;-55
2020/12/05 03:23:01;;;;;;;177.85;85.45;;;;;;;-1.48;67.84;94462.83;1780883;80;21095;-54
2020/12/05 03:25:29;;;;;;;179.18;84.70;;;;;;;-1.37;67.77;94463.64;1780791;80;22631;-53
2020/12/05 03:27:58;;;;;;;167.82;76.53;;;;;;;-1.28;67.42;94466.21;1780858;80;21076;-54
2020/12/05 03:30:26;;;;;;;165.03;81.70;;;;;;;-1.30;66.93;94465.80;1780869;80;21100;-54
2020/12/05 03:32:56;;;;;;;171.20;85.25;;;;;;;-1.42;66.89;94454.00;1780872;80;21112;-54
2020/12/05 03:35:26;;;;;;;154.87;78.70;;;;;;;-1.50;66.89;94457.80;1780961;80;21548;-54
2020/12/05 03:37:56;;;;;;;154.20;81.00;;;;;;;-1.47;67.37;94448.19;1780910;80;22231;-54
2020/12/05 03:40:25;;;;;;;136.37;67.95;;;;;;;-1.38;67.37;94455.34;1780731;80;21127;-54
2020/12/05 03:42:54;;;;;;;132.75;68.52;;;;;;;-1.25;67.19;94465.45;1780938;80;21604;-55
2020/12/05 03:45:23;;;;;;;137.32;68.78;;;;;;;-1.18;67.16;94459.31;1780826;80;21096;-55
2020/12/05 03:47:51;;;;;;;154.57;78.80;;;;;;;-1.13;66.86;94466.44;1771622;80;21051;-54
2020/12/05 03:50:20;;;;;;;166.90;83.35;;;;;;;-1.21;66.55;94459.48;1757981;81;21301;-54
2020/12/05 03:52:49;;;;;;;155.12;80.55;;;;;;;-1.36;66.47;94456.52;1757902;81;21515;-54
2020/12/05 03:55:17;;;;;;;160.85;83.35;;;;;;;-1.49;66.73;94459.34;1758055;81;21800;-54
2020/12/05 03:57:46;;;;;;;169.77;85.87;;;;;;;-1.50;67.03;94453.75;1758080;81;21141;-54
2020/12/05 04:00:14;;;;;;;158.32;83.50;;;;;;;-1.43;66.90;94455.72;1758011;80;21138;-55
2020/12/05 04:02:43;;;;;;;156.37;79.67;;;;;;;-1.40;66.46;94461.70;1757987;81;22511;-54
2020/12/05 04:05:12;;;;;;;152.12;79.55;;;;;;;-1.50;66.18;94461.09;1757897;81;21070;-55
2020/12/05 04:07:41;;;;;;;143.60;75.72;;;;;;;-1.63;66.50;94463.34;1757946;81;21473;-54
2020/12/05 04:10:09;;;;;;;141.37;73.75;;;;;;;-1.64;66.54;94463.70;1758064;81;21488;-54
2020/12/05 04:12:38;;;;;;;127.47;62.08;;;;;;;-1.66;66.71;94475.44;1757992;81;21046;-55
2020/12/05 04:15:07;;;;;;;143.72;71.25;;;;;;;-1.60;67.07;94473.92;1757983;80;22470;-55
2020/12/05 04:17:35;;;;;;;152.87;72.08;;;;;;;-1.59;67.12;94475.47;1758038;81;21130;-56
2020/12/05 04:20:04;;;;;;;146.53;78.70;;;;;;;-1.63;66.90;94482.77;1757918;81;21118;-55
2020/12/05 04:22:33;;;;;;;149.10;78.30;;;;;;;-1.79;66.85;94486.33;1757953;81;21142;-54
2020/12/05 04:25:03;;;;;;;147.07;76.22;;;;;;;-1.94;67.10;94486.61;1757989;81;21059;-54
2020/12/05 04:27:31;;;;;;;137.50;72.32;;;;;;;-1.92;67.31;94489.11;1758293;81;22102;-55
2020/12/05 04:29:59;;;;;;;131.55;67.95;;;;;;;-1.88;67.46;94479.16;1758078;81;21067;-54
2020/12/05 04:32:28;;;;;;;132.85;68.42;;;;;;;-1.73;67.35;94486.19;1758115;81;21070;-55
2020/12/05 04:34:57;;;;;;;122.60;63.08;;;;;;;-1.65;67.01;94479.69;1758132;81;21126;-55
2020/12/05 04:37:26;;;;;;;134.03;70.10;;;;;;;-1.71;66.85;94477.15;1758124;81;21122;-54
2020/12/05 04:39:55;;;;;;;135.68;68.35;;;;;;;-1.71;67.08;94479.84;1758098;81;21392;-54
2020/12/05 04:42:23;;;;;;;138.22;69.85;;;;;;;-1.62;67.03;94489.15;1758145;81;21590;-55
2020/12/05 04:44:53;;;;;;;139.22;70.65;;;;;;;-1.58;67.08;94489.94;1758197;81;21471;-54
2020/12/05 04:47:21;;;;;;;167.20;85.12;;;;;;;-1.55;66.88;94504.57;1757901;80;21218;-56
2020/12/05 04:49:49;;;;;;;142.77;73.37;;;;;;;-1.58;66.83;94497.23;1758228;81;21470;-55
2020/12/05 04:52:24;;;;;;;148.65;79.47;;;;;;;-1.60;66.85;94488.75;1758189;81;21345;-54
2020/12/05 04:54:55;;;;;;;132.10;71.85;;;;;;;-1.68;66.72;94497.96;1758046;81;21087;-55
2020/12/05 04:57:25;;;;;;;134.67;72.17;;;;;;;-1.85;66.69;94501.88;1730938;81;21174;-55
2020/12/05 04:59:55;;;;;;;174.57;101.62;;;;;;;-1.95;67.07;94499.89;1758185;81;21174;-55
2020/12/05 05:02:29;;;;;;;118.53;63.63;;;;;;;-1.89;67.61;94502.42;1758128;81;21170;-54
2020/12/05 05:04:57;;;;;;;127.87;68.92;;;;;;;-1.77;67.05;94500.20;1758143;81;21186;-55
2020/12/05 05:07:26;;;;;;;137.70;71.42;;;;;;;-1.90;67.19;94516.49;1758025;81;21122;-55
2020/12/05 05:10:13;;;;;;;127.45;68.52;;;;;;;-1.95;67.49;94515.47;1758106;81;21118;-54
2020/12/05 05:12:37;;;;;;;109.67;60.90;;;;;;;-1.92;67.51;94514.72;1757733;81;21506;-55
2020/12/05 05:15:30;;;;;;;104.55;60.23;;;;;;;-1.95;67.46;94511.42;1758217;81;21593;-54
2020/12/05 05:18:03;;;;;;;108.00;56.70;;;;;;;-2.02;67.82;94515.98;1758243;80;26693;-55
2020/12/05 05:20:38;;;;;;;135.48;72.78;;;;;;;-1.97;68.17;94520.46;1758023;81;21079;-55
2020/12/05 05:23:13;;;;;;;135.32;70.20;;;;;;;-1.95;67.96;94518.16;1730833;81;21087;-55
2020/12/05 05:25:58;;;;;;;140.65;74.75;;;;;;;-2.04;68.09;94519.06;1758147;81;21046;-55
2020/12/05 05:28:32;;;;;;;125.22;69.60;;;;;;;-2.04;68.14;94521.77;1758148;81;21233;-54
2020/12/05 05:31:18;;;;;;;126.40;66.85;;;;;;;-2.01;68.38;94518.88;1731586;81;21363;-55
2020/12/05 05:33:48;;;;;;;129.85;72.22;;;;;;;-1.93;68.36;94510.48;1757853;81;21173;-54
2020/12/05 05:36:29;;;;;;;134.45;74.92;;;;;;;-1.96;67.98;94512.58;1758118;81;21129;-55
2020/12/05 05:39:08;;;;;;;138.00;73.40;;;;;;;-2.11;68.05;94510.91;1758103;81;21139;-54
2020/12/05 05:41:38;;;;;;;143.30;73.17;;;;;;;-2.17;68.18;94520.48;1758132;81;21142;-54
2020/12/05 05:44:13;;;;;;;153.05;78.45;;;;;;;-2.12;68.62;94516.10;1758086;81;22356;-54
2020/12/05 05:46:46;;;;;;;186.43;102.45;;;;;;;-1.95;68.42;94524.14;1758018;81;21082;-55
2020/12/05 05:49:32;;;;;;;150.75;83.55;;;;;;;-1.83;68.31;94524.62;1774036;80;21112;-55
2020/12/05 05:52:04;;;;;;;185.80;94.28;;;;;;;-1.72;67.59;94524.12;1781015;80;21495;-55
2020/12/05 05:54:36;;;;;;;203.85;108.22;;;;;;;-1.80;67.32;94532.54;1781109;80;21068;-54
2020/12/05 05:57:13;;;;;;;225.20;112.13;;;;;;;-1.82;67.32;94534.25;1781211;80;21187;-55
2020/12/05 05:59:45;;;;;;;178.50;91.92;;;;;;;-1.88;67.25;94527.67;1780988;80;21505;-56
2020/12/05 06:02:14;;;;;;;178.95;93.12;;;;;;;-1.93;67.21;94538.77;1781070;80;21202;-56
2020/12/05 06:04:45;;;;;;;175.72;97.08;;;;;;;-2.02;67.46;94539.67;1780947;80;21131;-55
2020/12/05 06:07:19;;;;;;;177.50;95.72;;;;;;;-2.00;67.53;94540.66;1781153;80;21136;-56
2020/12/05 06:09:52;;;;;;;175.18;91.08;;;;;;;-1.97;67.44;94537.22;1750859;80;21143;-54
2020/12/05 06:12:26;;;;;;;162.95;88.22;;;;;;;-1.98;67.33;94544.52;1780909;80;21099;-56
2020/12/05 06:14:54;;;;;;;175.70;95.62;;;;;;;-2.03;67.42;94539.48;1781003;80;21223;-55
2020/12/05 06:17:23;;;;;;;192.60;100.95;;;;;;;-1.99;67.45;94548.36;1780914;80;21067;-56
2020/12/05 06:19:53;;;;;;;185.25;100.45;;;;;;;-2.01;67.63;94553.34;1780955;80;21056;-57
2020/12/05 06:22:50;;;;;;;272.50;140.50;;;;;;;-1.92;67.92;94546.30;1780925;80;21363;-55
2020/12/05 06:25:19;;;;;;;355.73;159.00;;;;;;;-1.70;67.80;94550.14;1750730;80;21142;-55
2020/12/05 06:27:51;;;;;;;251.07;119.53;;;;;;;-1.53;66.96;94550.25;1780889;80;21004;-57
2020/12/05 06:30:19;;;;;;;347.30;149.95;;;;;;;-1.57;66.62;94550.02;1780731;80;21076;-56
2020/12/05 06:32:49;;;;;;;504.35;203.47;;;;;;;-1.71;66.79;94549.35;1781036;80;21488;-55
2020/12/05 06:35:25;;;;;;;465.60;196.15;;;;;;;-1.81;66.87;94560.06;1780906;80;21331;-55
2020/12/05 06:37:55;;;;;;;473.28;198.07;;;;;;;-1.97;67.27;94566.27;1780837;80;21203;-55
2020/12/05 06:40:24;;;;;;;449.15;187.25;;;;;;;-2.01;67.81;94564.13;1780911;80;21143;-56
2020/12/05 06:42:56;;;;;;;454.02;189.62;;;;;;;-1.86;68.01;94575.23;1780887;80;21084;-56
2020/12/05 06:45:35;;;;;;;455.65;197.62;;;;;;;-1.67;67.93;94577.70;1780902;80;21178;-54
2020/12/05 06:48:15;;;;;;;463.33;197.28;;;;;;;-1.49;67.35;94578.60;1779086;80;24009;-55
2020/12/05 06:50:45;;;;;;;412.60;181.75;;;;;;;-1.41;66.99;94579.63;1758083;81;21594;-56
2020/12/05 06:53:25;;;;;;;406.97;188.72;;;;;;;-1.49;66.84;94578.60;1758011;81;21162;-56
2020/12/05 06:55:54;;;;;;;412.57;182.80;;;;;;;-1.47;67.35;94579.00;1758139;81;21186;-55
2020/12/05 06:58:26;;;;;;;332.73;172.22;;;;;;;-1.36;67.12;94570.41;1757974;81;21158;-56
2020/12/05 07:00:54;;;;;;;321.60;163.52;;;;;;;-1.34;67.03;94589.10;1758012;81;21382;-56
2020/12/05 07:03:27;;;;;;;333.50;163.05;;;;;;;-1.38;67.12;94599.09;1757945;81;21088;-58
2020/12/05 07:05:56;;;;;;;;;;;;;;;-1.37;67.34;94599.86;1760584;81;21139;-58
2020/12/05 07:08:39;;;;;;;440.23;228.22;;;;;;;-1.38;67.48;94591.56;1758023;81;20618;-57
2020/12/05 07:11:16;;;;;;;389.70;192.57;;;;;;;-1.35;67.45;94594.89;1758061;81;21146;-56
2020/12/05 07:13:50;;;;;;;391.02;203.70;;;;;;;-1.27;67.65;94595.13;1758014;81;21207;-56
2020/12/05 07:16:27;;;;;;;433.25;227.40;;;;;;;-1.20;67.83;94587.85;1757978;81;20999;-57
2020/12/05 07:18:59;;;;;;;375.30;189.67;;;;;;;-1.07;67.94;94582.34;1758116;81;21574;-55
2020/12/05 07:21:30;;;;;;;387.17;208.60;;;;;;;-0.94;68.06;94594.94;1758126;81;21111;-56
2020/12/05 07:23:58;;;;;;;358.47;185.82;;;;;;;-0.84;68.37;94584.75;1758024;81;21123;-56
2020/12/05 07:26:26;;;;;;;288.50;150.32;;;;;;;-0.68;68.55;94583.86;1757881;81;21515;-56
2020/12/05 07:28:56;;;;;;;318.48;158.55;;;;;;;-0.52;68.62;94597.27;1730918;81;21129;-56
2020/12/05 07:31:25;;;;;;;329.35;167.80;;;;;;;-0.39;68.65;94597.09;1757959;81;21123;-55
2020/12/05 07:33:54;;;;;;;349.77;200.47;;;;;;;-0.33;68.51;94601.55;1758061;81;21165;-58
2020/12/05 07:36:22;;;;;;;367.77;207.05;;;;;;;-0.32;68.53;94593.64;1757998;81;21054;-55
2020/12/05 07:38:51;;;;;;;346.45;187.60;;;;;;;-0.22;68.56;94599.67;1757907;81;23530;-57
2020/12/05 07:41:20;;;;;;;416.90;238.22;;;;;;;-0.15;68.52;94607.78;1757860;80;21099;-57
2020/12/05 07:43:48;;;;;;;373.62;212.15;;;;;;;-0.12;68.54;94600.26;1757982;81;21095;-56
2020/12/05 07:46:17;;;;;;;372.05;207.32;;;;;;;-0.05;68.57;94598.94;1730718;81;21594;-57
2020/12/05 07:48:48;;;;;;;345.35;189.70;;;;;;;-0.02;68.77;94600.88;1757846;80;21274;-57
2020/12/05 07:51:18;;;;;;;363.43;195.35;;;;;;;0.08;69.06;94597.59;1758018;80;21366;-59
2020/12/05 07:53:49;;;;;;;340.90;189.50;;;;;;;0.20;69.12;94594.52;1731059;81;21079;-56
2020/12/05 07:56:21;;;;;;;356.70;201.02;;;;;;;0.25;69.29;94596.84;1758058;81;21544;-57
2020/12/05 07:58:53;;;;;;;363.85;198.15;;;;;;;0.29;69.24;94597.64;1757925;81;21099;-58
2020/12/05 08:01:59;;;;;;;309.77;173.50;;;;;;;0.37;69.44;94607.89;1758394;81;21480;-56
2020/12/05 08:04:54;;;;;;;274.88;153.65;;;;;;;0.48;69.63;94604.03;1758167;81;21197;-55
2020/12/05 08:07:40;;;;;;;293.35;161.15;;;;;;;0.70;69.67;94604.20;1758090;81;21883;-57
2020/12/05 08:10:15;;;;;;;203.42;111.40;;;;;;;0.91;69.45;94602.04;1758256;81;21472;-58
2020/12/05 08:13:22;;;;;;;204.55;115.40;;;;;;;1.06;69.44;94608.42;1758136;81;21169;-58
2020/12/05 08:16:07;;;;;;;185.37;107.58;;;;;;;1.17;69.46;94611.10;1758153;81;21171;-57
2020/12/05 08:18:36;;;;;;;152.38;87.22;;;;;;;1.30;69.31;94614.95;1758245;81;22268;-57
2020/12/05 08:21:06;;;;;;;166.12;98.33;;;;;;;1.43;69.32;94615.48;1730876;81;21166;-56
2020/12/05 08:23:37;;;;;;;175.57;99.60;;;;;;;1.55;69.17;94619.70;1758111;81;21098;-56
2020/12/05 08:26:11;;;;;;;125.15;71.72;;;;;;;1.70;69.17;94622.55;1758023;81;21154;-58
2020/12/05 08:28:42;;;;;;;165.80;98.92;;;;;;;1.89;69.24;94622.27;1731451;81;21331;-57
2020/12/05 08:31:12;;;;;;;142.80;83.50;;;;;;;1.99;69.00;94626.09;1758175;81;21188;-56
2020/12/05 08:33:48;;;;;;;139.47;82.57;;;;;;;2.06;68.93;94615.20;1758075;81;21107;-56
2020/12/05 08:36:31;;;;;;;141.32;81.47;;;;;;;2.20;68.68;94619.19;1758119;81;21122;-57
2020/12/05 08:39:04;;;;;;;;;;;;;;;2.41;68.59;94628.55;1760806;81;21055;-57
2020/12/05 08:41:45;;;;;;;;;;;;;;;2.57;68.27;94624.19;1760758;81;20215;-56
2020/12/05 08:44:18;;;;;;;137.80;82.05;;;;;;;2.72;68.43;94628.31;1758237;81;22244;-57
2020/12/05 08:46:48;;;;;;;125.35;72.22;;;;;;;2.92;68.14;94611.69;1758066;81;21572;-57
2020/12/05 08:49:19;;;;;;;123.07;70.20;;;;;;;3.34;67.85;94622.15;1737554;80;21124;-58
2020/12/05 08:51:51;;;;;;;106.97;64.77;;;;;;;3.69;66.99;94613.61;1780907;80;21136;-57
2020/12/05 08:54:20;;;;;;;106.63;65.03;;;;;;;3.98;66.35;94606.05;1781161;80;21075;-58
2020/12/05 08:56:49;;;;;;;97.25;59.77;;;;;;;4.38;65.24;94605.11;1780960;80;21201;-59
2020/12/05 08:59:25;;;;;;;99.07;54.35;;;;;;;4.65;64.16;94610.56;1751081;80;21163;-56
2020/12/05 09:01:53;;;;;;;140.30;76.42;;;;;;;4.78;63.72;94600.02;1781141;80;21623;-56
2020/12/05 09:04:29;;;;;;;105.67;58.10;;;;;;;4.73;63.54;94605.17;1780957;80;21051;-57
2020/12/05 09:07:11;;;;;;;110.08;63.42;;;;;;;4.92;63.50;94599.80;1780969;80;21059;-57
2020/12/05 09:09:41;;;;;;;87.70;52.58;;;;;;;5.25;62.71;94590.06;1780998;80;21512;-56
2020/12/05 09:12:11;;;;;;;67.62;43.90;;;;;;;5.58;61.68;94583.61;1780852;80;21187;-57
2020/12/05 09:14:40;;;;;;;63.05;40.88;;;;;;;5.76;61.02;94585.40;1780997;80;21075;-59
2020/12/05 09:17:23;;;;;;;31.62;21.57;;;;;;;5.87;60.87;94582.48;1780915;80;21068;-56
2020/12/05 09:19:52;;;;;;;24.60;16.80;;;;;;;5.97;60.39;94584.24;1751518;80;21064;-57
2020/12/05 09:22:30;;;;;;;31.52;20.62;;;;;;;6.04;59.91;94584.09;1780921;80;21207;-58
2020/12/05 09:24:59;;;;;;;43.73;28.67;;;;;;;6.33;59.36;94582.30;1780851;80;21218;-59
2020/12/05 09:27:38;;;;;;;68.92;42.30;;;;;;;6.71;58.53;94577.92;1780886;80;21123;-58
2020/12/05 09:30:13;;;;;;;59.98;37.73;;;;;;;7.08;57.76;94583.63;1780977;80;21136;-58
2020/12/05 09:32:44;;;;;;;55.17;35.98;;;;;;;7.46;56.61;94568.19;1781010;80;21044;-60
2020/12/05 09:35:17;;;;;;;60.50;39.42;;;;;;;7.54;56.32;94574.41;1781058;80;22049;-58
2020/12/05 09:37:46;;;;;;;93.12;57.48;;;;;;;7.67;56.33;94558.06;1780881;80;21131;-57
2020/12/05 09:40:18;;;;;;;83.92;47.75;;;;;;;7.85;55.92;94558.34;1780885;80;21111;-57
2020/12/05 09:42:46;;;;;;;85.92;48.25;;;;;;;7.92;56.06;94560.25;1780918;80;21139;-56
2020/12/05 09:45:15;;;;;;;95.70;52.17;;;;;;;7.79;55.79;94551.25;1781015;80;21543;-56
2020/12/05 09:47:44;;;;;;;82.00;49.83;;;;;;;7.68;56.26;94564.45;1780906;80;21567;-57
2020/12/05 09:50:14;;;;;;;88.62;50.48;;;;;;;7.78;56.40;94546.97;1783779;80;21071;-58
2020/12/05 09:52:43;;;;;;;81.67;50.28;;;;;;;7.96;55.77;94550.57;1786500;80;21428;-57
2020/12/05 09:55:12;;;;;;;64.87;38.50;;;;;;;8.00;55.61;94535.58;1758535;80;21104;-56
2020/12/05 09:57:40;;;;;;;60.20;37.50;;;;;;;8.19;55.48;94544.24;1786483;80;21071;-56
2020/12/05 10:00:12;;;;;;;59.90;33.55;;;;;;;8.50;55.16;94550.75;1786522;80;21480;-57
2020/12/05 10:02:40;;;;;;;62.20;36.83;;;;;;;8.92;53.72;94549.41;1786420;80;21071;-58
2020/12/05 10:05:10;;;;;;;70.17;41.77;;;;;;;9.22;52.80;94550.19;1758439;80;21071;-57
2020/12/05 10:07:39;;;;;;;64.47;39.88;;;;;;;9.52;52.17;94551.69;1786421;79;21084;-55
2020/12/05 10:10:08;;;;;;;55.33;36.30;;;;;;;9.65;52.03;94535.16;1786845;79;21162;-58
2020/12/05 10:12:37;;;;;;;73.15;43.63;;;;;;;9.78;51.56;94558.60;1786442;79;21272;-56
2020/12/05 10:15:06;;;;;;;93.92;55.25;;;;;;;9.81;51.35;94547.34;1786480;79;21508;-60
2020/12/05 10:17:34;;;;;;;77.97;49.05;;;;;;;9.75;52.19;94543.61;1786433;79;21151;-57
2020/12/05 10:20:05;;;;;;;54.65;36.38;;;;;;;9.89;52.28;94547.23;1786482;80;21060;-57
2020/12/05 10:22:33;;;;;;;60.83;38.10;;;;;;;10.00;52.09;94538.01;1767419;80;21067;-58
2020/12/05 10:25:04;;;;;;;74.85;45.95;;;;;;;10.28;51.53;94538.35;1755257;81;21220;-56
2020/12/05 10:27:32;;;;;;;57.58;34.98;;;;;;;10.51;50.60;94536.51;1767668;80;21099;-58
2020/12/05 10:30:01;;;;;;;53.55;34.75;;;;;;;10.68;50.28;94529.55;1786432;80;21056;-56
2020/12/05 10:32:29;;;;;;;106.70;67.50;;;;;;;10.67;49.99;94537.63;1786508;80;21484;-56
2020/12/05 10:34:58;;;;;;;71.87;45.48;;;;;;;10.50;50.46;94536.35;1786370;80;21064;-58
2020/12/05 10:37:27;;;;;;;70.42;42.53;;;;;;;10.61;50.42;94539.44;1786553;80;21390;-57
2020/12/05 10:39:55;;;;;;;56.63;36.68;;;;;;;10.86;49.95;94542.16;1786370;79;21130;-58
2020/12/05 10:42:24;;;;;;;52.30;33.45;;;;;;;11.10;49.54;94535.48;1786437;79;21194;-58
2020/12/05 10:44:54;;;;;;;50.08;32.65;;;;;;;11.45;48.75;94529.29;1786508;80;21603;-57
2020/12/05 10:47:23;;;;;;;48.75;31.23;;;;;;;11.79;47.89;94539.28;1786414;80;21079;-57
2020/12/05 10:49:52;;;;;;;46.80;32.00;;;;;;;12.04;47.80;94535.59;1786262;79;21191;-58
2020/12/05 10:52:20;;;;;;;48.48;31.87;;;;;;;12.31;47.66;94536.16;1756022;81;21107;-57
2020/12/05 10:54:49;;;;;;;31.62;21.60;;;;;;;12.59;46.63;94523.99;1758023;81;21071;-56
2020/12/05 10:57:17;;;;;;;34.80;25.35;;;;;;;12.99;45.37;94533.35;1755552;81;21159;-56
2020/12/05 10:59:45;;;;;;;34.33;23.42;;;;;;;13.03;45.38;94515.99;1755423;80;21559;-58
2020/12/05 11:02:16;;;;;;;42.67;27.58;;;;;;;13.09;44.92;94523.17;1755413;81;22238;-59
2020/12/05 11:04:44;;;;;;;36.63;25.30;;;;;;;13.03;44.66;94531.18;1755287;81;21150;-58
2020/12/05 11:07:13;;;;;;;46.10;30.75;;;;;;;12.98;44.87;94529.06;1755296;81;21095;-57
2020/12/05 11:09:43;;;;;;;49.93;33.00;;;;;;;12.89;45.67;94520.17;1755317;81;21071;-63
2020/12/05 11:12:11;;;;;;;42.35;29.42;;;;;;;12.76;45.66;94509.98;1755592;80;21484;-57
2020/12/05 11:14:41;;;;;;;46.70;31.70;;;;;;;12.77;45.91;94524.53;1762297;80;22179;-56
2020/12/05 11:17:10;;;;;;;44.50;29.60;;;;;;;12.82;45.40;94523.89;1758091;80;21096;-58
2020/12/05 11:19:39;;;;;;;50.65;29.85;;;;;;;12.93;45.59;94518.66;1758080;81;21496;-58
2020/12/05 11:22:07;;;;;;;38.33;27.93;;;;;;;13.30;45.22;94510.33;1758006;81;21147;-58
2020/12/05 11:24:36;;;;;;;42.10;30.55;;;;;;;13.80;43.72;94514.89;1758007;80;21552;-57
2020/12/05 11:27:04;;;;;;;42.23;27.07;;;;;;;14.20;43.51;94511.78;1757950;81;22167;-57
2020/12/05 11:29:33;;;;;;;35.40;25.65;;;;;;;14.69;42.31;94512.66;1778763;80;21143;-57